Wetterdaten: aktuell Donnerstag, 27.02.2020 01:43
Datum Zeit Temp. A. Feuchte A. Luftdruck Regen Wind Richtung Richtung Taupunkt Windchill Windben
27.02.2020 01:43 0,3 C 82 % 1011,7 hPa 0,0 l/m 22,5 km/h (4 Bft) SW 225 -2,4 C -10,3 C 27,4 km/h (4 Bft)
27.02.2020 00:43 0,1 C 84 % 1011,5 hPa 0,0 l/m 17,7 km/h (3 Bft) SW 225 -2,3 C -8,4 C 19,3 km/h (3 Bft)
26.02.2020 23:43 0,2 C 85 % 1010,8 hPa 0,0 l/m 16,1 km/h (3 Bft) W-SW 247 -2,0 C -7,4 C 19,3 km/h (3 Bft)
26.02.2020 22:43 0,2 C 87 % 1010,4 hPa 0,0 l/m 17,7 km/h (3 Bft) W-SW 247 -1,7 C -8,2 C 20,9 km/h (4 Bft)
26.02.2020 21:43 0,3 C 86 % 1010,1 hPa 0,0 l/m 14,5 km/h (3 Bft) W-SW 247 -1,8 C -6,3 C 22,5 km/h (4 Bft)
26.02.2020 20:43 0,2 C 86 % 1009,5 hPa 0,0 l/m 22,5 km/h (4 Bft) SW 225 -1,9 C -10,5 C 27,4 km/h (4 Bft)
26.02.2020 19:43 0,6 C 83 % 1008,6 hPa 0,0 l/m 22,5 km/h (4 Bft) SW 225 -1,9 C -9,9 C 27,4 km/h (4 Bft)
26.02.2020 18:43 0,3 C 82 % 1007,4 hPa 0,0 l/m 19,3 km/h (3 Bft) SW 225 -2,4 C -8,9 C 24,1 km/h (4 Bft)
26.02.2020 17:43 0,7 C 80 % 1006,3 hPa 0,0 l/m 20,9 km/h (4 Bft) SW 225 -2,3 C -9,1 C 24,1 km/h (4 Bft)
26.02.2020 16:43 1,3 C 80 % 1005,5 hPa 0,2 l/m 20,9 km/h (4 Bft) W-SW 247 -1,8 C -8,3 C 24,1 km/h (4 Bft)
26.02.2020 15:43 1,0 C 84 % 1004,9 hPa 0,0 l/m 19,3 km/h (3 Bft) SW 225 -1,4 C -8,0 C 22,5 km/h (4 Bft)
26.02.2020 14:43 -0,2 C 89 % 1004,2 hPa 0,0 l/m 25,7 km/h (4 Bft) W 270 -1,8 C -12,2 C 35,4 km/h (5 Bft)
26.02.2020 13:43 1,3 C 84 % 1002,6 hPa 0,0 l/m 30,6 km/h (5 Bft) SW 225 -1,1 C -11,8 C 35,4 km/h (5 Bft)
26.02.2020 12:43 5,3 C 65 % 1000,9 hPa 0,0 l/m 30,6 km/h (5 Bft) SW 225 -0,7 C -6,1 C 43,5 km/h (6 Bft)
26.02.2020 11:43 6,4 C 60 % 1000,4 hPa 0,0 l/m 41,8 km/h (6 Bft) SW 225 -0,8 C -6,7 C 66,0 km/h (8 Bft)
26.02.2020 10:43 5,3 C 62 % 1000,4 hPa 0,0 l/m 35,4 km/h (5 Bft) SW 225 -1,4 C -7,2 C 46,7 km/h (6 Bft)
26.02.2020 09:43 4,9 C 62 % 1001,1 hPa 0,0 l/m 29,0 km/h (5 Bft) W-SW 247 -1,8 C -6,3 C 33,8 km/h (5 Bft)
26.02.2020 08:43 3,6 C 70 % 1001,8 hPa 0,0 l/m 19,3 km/h (3 Bft) SW 225 -1,3 C -4,7 C 24,1 km/h (4 Bft)
26.02.2020 07:43 2,2 C 75 % 1002,0 hPa 0,0 l/m 24,1 km/h (4 Bft) SW 225 -1,8 C -8,4 C 27,4 km/h (4 Bft)
26.02.2020 06:43 2,7 C 75 % 1001,4 hPa 0,0 l/m 27,4 km/h (4 Bft) SW 225 -1,3 C -8,8 C 30,6 km/h (5 Bft)
26.02.2020 05:43 3,1 C 76 % 1000,7 hPa 0,0 l/m 20,9 km/h (4 Bft) SW 225 -0,7 C -6,0 C 29,0 km/h (5 Bft)
26.02.2020 04:43 3,8 C 78 % 1000,1 hPa 0,0 l/m 25,7 km/h (4 Bft) W-SW 247 0,3 C -6,8 C 32,2 km/h (5 Bft)
26.02.2020 03:42 3,8 C 79 % 999,5 hPa 0,2 l/m 20,9 km/h (4 Bft) W-SW 247 0,5 C -5,1 C 25,7 km/h (4 Bft)
26.02.2020 02:42 4,1 C 82 % 999,7 hPa 0,0 l/m 25,7 km/h (4 Bft) SW 225 1,3 C -6,4 C 29,0 km/h (5 Bft)
26.02.2020 02:00 3,1 C 85 % 1000,2 hPa 0,0 l/m 9,7 km/h (2 Bft) S-SW 202 0,8 C 0,2 C 11,3 km/h (2 Bft)
_ Min-Zeit 14:42 10:32 03:08 - 02:10 - - 01:10 14:29 02:10
Minimum _ -0,3 C 57 % 999,1 hPa - 6,4 km/h (2 Bft) - - -2,7 C -15,0 C 8,0 km/h (2 Bft)
_ Max-Zeit 11:36 14:41 01:32 03:22 03:49 - - 03:23 02:10 11:41
Maximum _ 6,6 C 89 % 1011,8 hPa 0,2 l/m 48,3 km/h
SW (6 Bft)
- - 1,6 C 3,1 C 66,0 km/h
SW (8 Bft)
Durchschnitt _ 2,3 C 79 % 1004,1 hPa #0,4 l/m 22,5 km/h (4 Bft) SW - -1,1 C -7,2 C 29,3 km/h (5 Bft)